createdAt,value
2019-05-19T06:17:26.552Z,20.20
2019-05-19T06:35:40.009Z,20.50
2019-05-19T06:56:19.778Z,21.00
2019-05-19T06:58:48.267Z,21.10
2019-05-19T07:01:16.780Z,21.10
2019-05-19T07:03:45.320Z,21.10
2019-05-19T07:06:13.827Z,21.10
2019-05-19T07:08:42.207Z,21.10
2019-05-19T07:11:10.835Z,21.20
2019-05-19T07:13:39.440Z,21.20
2019-05-19T07:16:55.783Z,21.30
2019-05-19T07:19:16.923Z,21.40
2019-05-19T07:21:45.425Z,21.50
2019-05-19T07:24:33.827Z,21.60
2019-05-19T07:27:02.472Z,21.70
2019-05-19T07:29:31.004Z,21.70
2019-05-19T07:31:59.477Z,21.70
2019-05-19T07:34:27.976Z,21.80
2019-05-19T07:36:59.657Z,21.90
2019-05-19T07:39:28.126Z,22.00
2019-05-19T07:41:56.629Z,22.10
2019-05-19T07:56:58.258Z,22.40
2019-05-19T07:59:17.971Z,22.50
2019-05-19T08:01:55.486Z,22.50
2019-05-19T08:04:37.643Z,22.60
2019-05-19T08:07:24.677Z,22.60
2019-05-19T08:09:54.872Z,22.70
2019-05-19T08:12:23.602Z,22.80
2019-05-19T08:14:52.332Z,22.80
2019-05-19T08:17:21.005Z,22.90
2019-05-19T08:19:49.685Z,22.90
2019-05-19T08:22:18.084Z,23.00
2019-05-19T08:24:46.558Z,23.00
2019-05-19T08:27:15.152Z,23.10
2019-05-19T08:29:43.624Z,23.10
2019-05-19T08:32:13.528Z,23.10
2019-05-19T08:34:42.171Z,23.20
2019-05-19T08:37:10.680Z,23.30
2019-05-19T08:39:39.230Z,23.30
2019-05-19T08:42:07.733Z,23.30
2019-05-19T08:44:36.306Z,23.40
2019-05-19T08:47:04.877Z,23.40
2019-05-19T08:49:34.689Z,23.50
2019-05-19T08:52:03.457Z,23.60
2019-05-19T08:54:31.989Z,23.60
2019-05-19T08:57:00.588Z,23.70
2019-05-19T08:59:29.124Z,23.80
2019-05-19T09:01:57.640Z,23.80
2019-05-19T09:04:26.191Z,23.80
2019-05-19T09:06:54.613Z,23.90
2019-05-19T09:09:23.230Z,24.00
2019-05-19T09:11:51.743Z,24.10
2019-05-19T09:14:20.979Z,24.10
2019-05-19T09:16:49.674Z,24.20
2019-05-19T09:19:18.363Z,24.20
2019-05-19T09:21:46.918Z,24.30
2019-05-19T09:24:29.636Z,24.30
2019-05-19T09:26:45.631Z,24.40
2019-05-19T09:29:14.204Z,24.50
2019-05-19T09:31:42.582Z,24.50
2019-05-19T09:34:11.200Z,24.60
2019-05-19T09:36:39.791Z,24.60
2019-05-19T09:39:08.659Z,24.70
2019-05-19T09:41:37.131Z,24.70
2019-05-19T09:44:05.759Z,24.80
2019-05-19T09:46:34.279Z,24.80
2019-05-19T09:49:21.980Z,24.90
2019-05-19T09:51:50.578Z,25.00
2019-05-19T09:54:19.217Z,25.10
2019-05-19T09:56:47.863Z,25.20
2019-05-19T09:59:16.301Z,25.20
2019-05-19T10:01:44.736Z,25.10
2019-05-19T10:04:13.248Z,25.10
2019-05-19T10:06:42.273Z,25.10
2019-05-19T10:09:18.206Z,25.20
2019-05-19T10:12:01.951Z,25.20
2019-05-19T10:14:30.641Z,25.20
2019-05-19T10:17:01.075Z,25.30
2019-05-19T10:19:32.979Z,25.50
2019-05-19T10:22:01.648Z,25.50
2019-05-19T10:24:30.235Z,25.60
2019-05-19T10:27:00.999Z,25.50
2019-05-19T10:29:29.289Z,25.60
2019-05-19T10:31:57.750Z,25.60
2019-05-19T10:37:09.016Z,25.80
2019-05-19T10:39:43.741Z,25.80
2019-05-19T10:42:13.878Z,25.80
2019-05-19T10:47:58.208Z,25.90
2019-05-19T10:50:27.088Z,26.00
2019-05-19T10:52:55.868Z,26.10
2019-05-19T10:55:35.669Z,26.20
2019-05-19T10:57:54.533Z,26.30
2019-05-19T11:00:22.995Z,26.40
2019-05-19T11:05:30.050Z,26.60
2019-05-19T11:06:12.526Z,26.50
2019-05-19T11:08:01.215Z,26.60
2019-05-19T11:10:49.764Z,26.60
2019-05-19T11:13:27.564Z,26.70
2019-05-19T11:15:56.216Z,26.60
2019-05-19T11:18:27.841Z,26.70
2019-05-19T11:20:58.057Z,26.90
2019-05-19T11:23:26.678Z,27.00
2019-05-19T11:25:55.315Z,27.30
2019-05-19T11:28:24.041Z,27.60
2019-05-19T11:30:59.353Z,28.00
2019-05-19T11:36:21.218Z,29.10
2019-05-19T13:13:44.883Z,32.80
2019-05-19T13:16:13.539Z,32.90
2019-05-19T13:18:42.056Z,33.00
2019-05-19T13:21:10.734Z,33.10
2019-05-19T13:23:39.392Z,33.10
2019-05-19T13:26:07.923Z,33.20
2019-05-19T13:28:36.547Z,33.00
2019-05-19T13:31:05.144Z,33.00
2019-05-19T13:33:33.644Z,32.70
2019-05-19T13:36:02.225Z,32.70
2019-05-19T13:38:30.758Z,32.70
2019-05-19T13:40:59.301Z,32.50
2019-05-19T13:43:28.269Z,32.50
2019-05-19T13:45:56.955Z,32.30
2019-05-19T13:48:25.514Z,32.40
2019-05-19T13:50:54.048Z,32.40
2019-05-19T13:53:22.641Z,32.40
2019-05-19T13:55:51.316Z,32.40
2019-05-19T13:58:19.905Z,32.40
2019-05-19T14:00:48.503Z,32.20
2019-05-19T14:03:17.120Z,32.00
2019-05-19T14:05:45.767Z,32.20
2019-05-19T14:08:14.340Z,32.50
2019-05-19T14:10:42.901Z,32.70
2019-05-19T14:13:11.501Z,32.90
2019-05-19T14:15:41.606Z,33.20
2019-05-19T14:18:12.898Z,32.80
2019-05-19T14:20:41.380Z,32.60
2019-05-19T14:23:09.908Z,32.60
2019-05-19T14:25:38.344Z,33.00
2019-05-19T14:28:06.915Z,33.40
2019-05-19T14:30:35.340Z,33.70
2019-05-19T14:33:03.952Z,34.00
2019-05-19T14:35:32.351Z,34.40
2019-05-19T14:38:00.867Z,34.70
2019-05-19T14:40:29.363Z,34.80
2019-05-19T14:42:59.545Z,34.80
2019-05-19T14:45:28.068Z,34.90
2019-05-19T14:47:56.559Z,34.90
2019-05-19T14:50:25.232Z,35.00
2019-05-19T14:52:53.700Z,35.10
2019-05-19T15:01:22.616Z,35.30
2019-05-19T15:03:51.330Z,35.30
2019-05-19T15:06:19.723Z,35.10
2019-05-19T15:08:48.132Z,34.80
2019-05-19T15:11:16.555Z,34.90
2019-05-19T15:13:44.977Z,34.70
2019-05-19T15:16:13.510Z,34.60
2019-05-19T15:18:41.931Z,34.60
2019-05-19T15:21:10.335Z,34.50
2019-05-19T15:23:38.830Z,34.40
2019-05-19T15:26:07.418Z,34.30
2019-05-19T15:31:24.984Z,33.80
2019-05-19T15:33:53.611Z,33.40
2019-05-19T15:36:21.996Z,33.10
2019-05-19T15:38:50.492Z,32.60
2019-05-19T15:41:18.983Z,32.30
2019-05-19T15:43:47.461Z,32.00
2019-05-19T15:46:18.140Z,31.80
2019-05-19T15:48:45.965Z,31.60
2019-05-19T15:51:14.396Z,31.40
2019-05-19T15:53:42.819Z,31.30
2019-05-19T15:56:11.207Z,31.20
2019-05-19T15:58:40.227Z,31.00
2019-05-19T16:01:08.869Z,30.80
2019-05-19T16:03:37.289Z,30.60
2019-05-19T16:06:05.860Z,30.50
2019-05-19T16:08:34.255Z,30.40
2019-05-19T16:11:02.763Z,30.30
2019-05-19T16:13:31.304Z,30.30
2019-05-19T16:15:59.867Z,30.10
2019-05-19T16:18:28.347Z,30.10
2019-05-19T16:20:57.024Z,30.00
2019-05-19T16:23:25.610Z,30.00
2019-05-19T16:25:54.015Z,29.90
2019-05-19T16:28:30.208Z,29.90
2019-05-19T16:30:52.950Z,29.70
2019-05-19T16:33:21.375Z,29.60
2019-05-19T16:35:49.997Z,29.50
2019-05-19T16:38:18.510Z,29.40
2019-05-19T16:40:47.092Z,29.40
2019-05-19T16:43:15.632Z,29.20
2019-05-19T16:45:44.166Z,29.20
2019-05-19T16:48:12.859Z,29.10
2019-05-19T16:50:41.450Z,29.10
2019-05-19T16:53:09.938Z,29.00
2019-05-19T16:55:38.635Z,28.90
2019-05-19T16:58:20.183Z,28.90
2019-05-19T17:00:37.439Z,28.70
2019-05-19T17:03:05.875Z,28.60
2019-05-19T17:05:34.597Z,28.50
2019-05-19T17:08:03.169Z,28.50
2019-05-19T17:10:31.785Z,28.30
2019-05-19T17:13:00.442Z,28.20
2019-05-19T17:15:29.207Z,28.10
2019-05-19T17:17:57.842Z,28.10
2019-05-19T17:20:26.368Z,28.00
2019-05-19T17:22:54.894Z,27.90
2019-05-19T17:25:24.888Z,27.90
2019-05-19T17:28:22.743Z,27.80
2019-05-19T17:30:53.019Z,27.80
2019-05-19T17:33:27.431Z,27.70
2019-05-19T17:36:13.862Z,27.60
2019-05-19T17:38:45.602Z,27.50
2019-05-19T17:41:26.176Z,27.50
2019-05-19T17:47:01.023Z,27.40
2019-05-19T17:49:29.461Z,27.40
2019-05-19T17:51:57.988Z,27.30
2019-05-19T17:54:26.537Z,27.30
2019-05-19T17:56:55.247Z,27.20
2019-05-19T17:59:23.869Z,27.20
2019-05-19T18:01:53.256Z,27.10
2019-05-19T18:04:21.775Z,27.10
2019-05-19T18:06:50.284Z,27.00
2019-05-19T18:09:18.853Z,26.90
2019-05-19T18:11:47.413Z,26.90
2019-05-19T18:14:15.967Z,26.80
2019-05-19T18:16:44.554Z,26.80
2019-05-19T18:19:13.176Z,26.70
2019-05-19T18:21:41.786Z,26.70
2019-05-19T18:24:10.382Z,26.70
2019-05-19T18:26:39.034Z,26.60
2019-05-19T18:29:07.548Z,26.50
2019-05-19T18:31:54.251Z,26.50
2019-05-19T18:34:30.427Z,26.50
2019-05-19T18:37:26.724Z,26.40
2019-05-19T18:39:51.201Z,26.40
2019-05-19T18:42:21.470Z,26.40
2019-05-19T18:44:50.134Z,26.30
2019-05-19T18:47:18.955Z,26.20
2019-05-19T18:59:47.516Z,25.90
2019-05-19T19:02:28.691Z,25.80
2019-05-19T19:17:08.195Z,25.50
2019-05-19T20:07:03.748Z,24.30
2019-05-19T20:09:32.809Z,24.30
2019-05-19T20:12:26.291Z,24.30
2019-05-19T20:15:12.043Z,24.30
2019-05-19T20:17:34.769Z,24.20
2019-05-19T20:20:09.458Z,24.20
2019-05-19T20:25:49.419Z,24.10
2019-05-19T20:31:05.732Z,24.10
2019-05-19T20:33:40.487Z,24.00
2019-05-19T20:36:17.896Z,23.90
2019-05-19T20:38:46.013Z,23.90
2019-05-19T20:41:25.332Z,23.80
2019-05-19T20:43:55.561Z,23.80
2019-05-19T20:46:24.351Z,23.80
2019-05-19T20:48:57.554Z,23.70
2019-05-19T20:51:38.505Z,23.70
2019-05-19T20:54:08.828Z,23.70
2019-05-19T20:56:43.178Z,23.60
2019-05-19T20:59:34.322Z,23.60
2019-05-19T21:02:12.311Z,23.60
2019-05-19T21:06:25.569Z,23.50
2019-05-19T21:07:27.758Z,23.50
2019-05-19T21:09:56.540Z,23.40
2019-05-19T21:12:33.382Z,23.40
2019-05-19T21:15:07.914Z,23.40
2019-05-19T21:17:45.340Z,23.40
2019-05-19T21:20:18.305Z,23.40
2019-05-19T21:25:55.626Z,23.30
2019-05-19T21:28:39.548Z,23.30
2019-05-19T21:34:30.626Z,23.20
2019-05-19T21:37:08.076Z,23.20
2019-05-19T21:40:02.447Z,23.10
2019-05-19T21:49:26.814Z,23.00
2019-05-19T21:52:25.605Z,23.00
2019-05-19T22:07:14.340Z,22.90
2019-05-19T22:40:11.347Z,22.60
2019-05-19T22:42:46.698Z,22.50
2019-05-19T22:45:19.299Z,22.50
2019-05-19T22:53:51.076Z,22.50
2019-05-19T22:56:21.496Z,22.40
2019-05-19T22:58:50.221Z,22.40
2019-05-19T23:01:22.176Z,22.40
2019-05-19T23:04:05.482Z,22.30
2019-05-19T23:07:38.963Z,22.40
2019-05-19T23:09:27.012Z,22.30
2019-05-19T23:16:32.686Z,22.30
2019-05-19T23:20:29.966Z,22.20
2019-05-19T23:22:54.437Z,22.20
2019-05-19T23:25:28.996Z,22.10
2019-05-19T23:30:54.356Z,22.20
2019-05-19T23:33:29.488Z,22.10
2019-05-19T23:39:17.392Z,22.00
2019-05-19T23:41:53.913Z,22.00
2019-05-19T23:44:26.986Z,22.10
2019-05-19T23:47:04.502Z,22.10
2019-05-19T23:53:04.798Z,22.00
2019-05-19T23:55:38.223Z,21.90
2019-05-19T23:58:08.724Z,21.90
